Weather at Athens Emergency Med-Evac Heliport

Public forecast

Using degrees Fahrenheit for public forecast. Weather courtesy of forecast.io.

Closest aviation weather report (METAR) to Athens Emergency Med-Evac Heliport

Report is more than 6 hours old.

Closest report is Pittsfield Municipal Airport, 25.9 nm (47.9 km) ENE.

2022/11/14 14:54 (retrieved 2 years ago)

KPSF 141454Z AUTO 30016G22KT 10SM SCT035 01/M08 A3024 RMK AO2 SLP248 T00111078 51022

Closest aviation forecast (TAF) to Athens Emergency Med-Evac Heliport

Forecast is more than 12 hours old.

Closest forecast is Pittsfield Municipal Airport, 25.9 nm (47.9 km) ENE.

2023/02/22 18:33 (retrieved 1 year ago)

TAF KPSF 221732Z 2218/2318 28006KT P6SM BKN050 OVC120 FM222100 VRB03KT 4SM -SN BR OVC030 TEMPO 2221/2223 2SM -SN BR OVC015 FM222300 08005KT 3/4SM -SN BR OVC012 FM230200 09010KT 3SM -SNPL BR OVC009 FM230500 10010KT 3SM -FZRA BR OVC008 FM231500 09010G18KT 3SM -FZDZ BR OVC008